Ozery, Russia
Current Conditions -  °F | °C
As of 3:00 PM on Thursday 29 Jan 2015 (Local Time) from UUDD Reporting Station
Overcast Overcast  
Wind Chill: 16°   Ceiling: 1100
Heat Index: 27°   Visibility: 6mi
Dew Point: 23°   Wind: 11mph
Humidity: 86%   Direction: 190°S
Pressure: 29.74"   Gusts: NA
Location:  54.85°N, 38.55°E
Report Text: UUDD 291200Z 19005MPS 9999 OVC011 M03/M05 Q1007 64520195 NOSIG
Loading
Personal Weather Stations






























Interactive Weather Map New forecast layout! Learn more

10-Day Weather Forecast

Advertisements
Track Severe Weather on mobile